Time;durP1;ratioP1;P1;durP2;ratioP2;P2;SDS_P1;SDS_P2;PMS_P1;PMS_P2;Temp;Humidity;BMP_temperature;BMP_pressure;BME280_temperature;BME280_humidity;BME280_pressure;Samples;Min_cycle;Max_cycle;Signal;HPM_P1;HPM_P2
2022/05/03 00:00:12;;;;;;;2.13;2.03;;;11.70;99.90;;;;;;5086070;28;20196;-53
2022/05/03 00:03:14;;;;;;;1.73;1.63;;;11.60;99.90;;;;;;5088017;28;20267;-50
2022/05/03 00:06:07;;;;;;;1.60;1.50;;;11.50;99.90;;;;;;5079729;28;20290;-53
2022/05/03 00:09:05;;;;;;;1.50;1.40;;;11.50;99.90;;;;;;5085604;28;20736;-47
2022/05/03 00:12:02;;;;;;;1.83;1.40;;;11.40;99.90;;;;;;5084562;28;20225;-56
2022/05/03 00:14:55;;;;;;;1.50;1.40;;;11.40;99.90;;;;;;5081088;28;20266;-50
2022/05/03 00:17:42;;;;;;;1.97;1.37;;;11.30;99.90;;;;;;5083405;28;20188;-52
2022/05/03 00:20:27;;;;;;;1.53;1.43;;;11.40;99.90;;;;;;5083617;28;20327;-46
2022/05/03 00:23:11;;;;;;;1.33;1.23;;;11.40;99.90;;;;;;5081508;28;20185;-51
2022/05/03 00:25:57;;;;;;;1.73;1.53;;;11.30;99.90;;;;;;5085546;28;20205;-55
2022/05/03 00:28:42;;;;;;;2.17;1.23;;;11.30;99.90;;;;;;5081975;28;20189;-56
2022/05/03 00:31:28;;;;;;;1.67;1.57;;;11.30;99.90;;;;;;5078652;28;20233;-53
2022/05/03 00:34:13;;;;;;;2.17;1.73;;;11.20;99.90;;;;;;5085818;28;20310;-56
2022/05/03 00:36:57;;;;;;;1.47;1.43;;;11.20;99.90;;;;;;5082515;28;20209;-48
2022/05/03 00:39:42;;;;;;;1.80;1.70;;;11.20;99.90;;;;;;5082441;28;20189;-55
2022/05/03 00:42:35;;;;;;;1.40;1.30;;;11.20;99.90;;;;;;5084058;28;20205;-52
2022/05/03 00:46:01;;;;;;;1.53;1.43;;;11.10;99.90;;;;;;5080832;28;20200;-53
2022/05/03 00:49:09;;;;;;;1.90;1.80;;;11.10;99.90;;;;;;5081417;28;20205;-54
2022/05/03 00:52:07;;;;;;;1.50;1.30;;;11.10;99.90;;;;;;5084917;28;20216;-50
2022/05/03 00:55:29;;;;;;;1.80;1.60;;;11.10;99.90;;;;;;5083107;28;20301;-54
2022/05/03 00:58:44;;;;;;;1.33;1.30;;;11.10;99.90;;;;;;5081620;28;20193;-54
2022/05/03 01:01:53;;;;;;;1.80;1.37;;;11.10;99.90;;;;;;5081443;28;20201;-48
2022/05/03 01:04:44;;;;;;;2.90;1.80;;;11.10;99.90;;;;;;5085096;28;20201;-50
2022/05/03 01:07:34;;;;;;;1.33;1.33;;;11.10;99.90;;;;;;5081282;28;20247;-52
2022/05/03 01:10:24;;;;;;;2.67;1.67;;;11.10;99.90;;;;;;5083290;28;20619;-52
2022/05/03 01:13:22;;;;;;;1.27;1.17;;;11.10;99.90;;;;;;5083512;28;20443;-52
2022/05/03 01:16:27;;;;;;;1.33;1.13;;;11.00;99.90;;;;;;5089767;28;20231;-54
2022/05/03 01:19:33;;;;;;;1.63;1.53;;;11.00;99.90;;;;;;5080937;28;20290;-55
2022/05/03 01:22:57;;;;;;;4.20;1.50;;;10.90;99.90;;;;;;5084720;28;20753;-50
2022/05/03 01:25:52;;;;;;;2.10;1.80;;;10.90;99.90;;;;;;5059603;28;20330;-49
2022/05/03 01:28:55;;;;;;;1.97;1.70;;;10.80;99.90;;;;;;5077878;28;20234;-48
2022/05/03 01:31:41;;;;;;;1.37;1.27;;;10.70;99.90;;;;;;5079612;28;20342;-52
2022/05/03 01:34:27;;;;;;;2.37;1.57;;;10.70;99.90;;;;;;5085181;28;20212;-49
2022/05/03 01:37:49;;;;;;;1.53;1.43;;;10.70;99.90;;;;;;5080293;28;20216;-50
2022/05/03 01:40:58;;;;;;;1.90;1.67;;;10.60;99.90;;;;;;5081344;28;20326;-50
2022/05/03 01:44:13;;;;;;;1.83;1.47;;;10.60;99.90;;;;;;5082247;28;20185;-44
2022/05/03 01:47:07;;;;;;;2.23;1.93;;;10.50;99.90;;;;;;5037204;28;20202;-49
2022/05/03 01:50:18;;;;;;;1.37;1.27;;;10.50;99.90;;;;;;5024741;28;20382;-52
2022/05/03 01:53:16;;;;;;;1.70;1.60;;;10.50;99.90;;;;;;5025334;28;20272;-53
2022/05/03 01:56:19;;;;;;;1.47;1.37;;;10.50;99.90;;;;;;5026224;28;20305;-51
2022/05/03 01:59:24;;;;;;;1.57;1.47;;;10.40;99.90;;;;;;5023891;28;20255;-54
2022/05/03 02:02:24;;;;;;;2.07;1.97;;;10.40;99.90;;;;;;5021361;28;20190;-52
2022/05/03 02:05:35;;;;;;;1.80;1.70;;;10.30;99.90;;;;;;5040523;28;20253;-53
2022/05/03 02:08:24;;;;;;;1.47;1.37;;;10.30;99.90;;;;;;5035480;28;20202;-54
2022/05/03 02:11:30;;;;;;;1.57;1.47;;;10.30;99.90;;;;;;5023481;28;20238;-51
2022/05/03 02:14:44;;;;;;;2.07;1.87;;;10.30;99.90;;;;;;5035851;28;20237;-55
2022/05/03 02:17:37;;;;;;;3.93;2.07;;;10.20;99.90;;;;;;5026387;28;20202;-45
2022/05/03 02:20:42;;;;;;;2.17;2.00;;;10.10;99.90;;;;;;5025080;28;20229;-53
2022/05/03 02:23:42;;;;;;;1.60;1.50;;;10.10;99.90;;;;;;5044382;28;20194;-50
2022/05/03 02:26:31;;;;;;;2.97;1.60;;;10.10;99.90;;;;;;5061664;28;20190;-48
2022/05/03 02:29:21;;;;;;;2.20;1.93;;;10.10;99.90;;;;;;5059520;28;20205;-55
2022/05/03 02:32:10;;;;;;;2.30;2.13;;;10.00;99.90;;;;;;5068059;28;20257;-44
2022/05/03 02:35:02;;;;;;;1.97;1.63;;;10.00;99.90;;;;;;5062464;28;20201;-48
2022/05/03 02:37:49;;;;;;;1.67;1.30;;;9.90;99.90;;;;;;5058060;28;20249;-54
2022/05/03 02:40:41;;;;;;;3.57;1.73;;;9.90;99.90;;;;;;5060891;28;20197;-54
2022/05/03 02:43:29;;;;;;;1.87;1.60;;;10.00;99.90;;;;;;5061076;28;20190;-54
2022/05/03 02:46:32;;;;;;;2.33;1.90;;;10.00;99.90;;;;;;5058242;28;20197;-52
2022/05/03 02:49:39;;;;;;;2.93;2.17;;;9.90;99.90;;;;;;5060863;28;20194;-45
2022/05/03 02:52:40;;;;;;;2.37;1.93;;;9.80;99.90;;;;;;5060803;28;20236;-46
2022/05/03 02:55:44;;;;;;;3.93;2.13;;;9.80;99.90;;;;;;5058212;28;20193;-50
2022/05/03 02:58:34;;;;;;;1.53;1.43;;;9.80;99.90;;;;;;5057530;28;20243;-45
2022/05/03 03:01:49;;;;;;;2.00;1.60;;;9.70;99.90;;;;;;5059317;28;20284;-49
2022/05/03 03:04:48;;;;;;;4.23;1.97;;;9.60;99.90;;;;;;5060971;28;20205;-56
2022/05/03 03:07:52;;;;;;;2.53;2.03;;;9.70;99.90;;;;;;5076999;28;20228;-53
2022/05/03 03:11:01;;;;;;;3.70;2.00;;;9.70;99.90;;;;;;5081866;28;20192;-49
2022/05/03 03:14:11;;;;;;;2.43;1.70;;;9.60;99.90;;;;;;5081005;28;20192;-46
2022/05/03 03:17:07;;;;;;;1.73;1.50;;;9.60;99.90;;;;;;5080512;28;20193;-50
2022/05/03 03:20:03;;;;;;;3.67;1.60;;;9.50;99.90;;;;;;5080288;28;20200;-47
2022/05/03 03:22:48;;;;;;;2.17;1.57;;;9.50;99.90;;;;;;5082938;28;20204;-51
2022/05/03 03:25:37;;;;;;;1.67;1.57;;;9.50;99.90;;;;;;5080938;28;20189;-50
2022/05/03 03:28:23;;;;;;;2.00;1.90;;;9.50;99.90;;;;;;5080783;28;20200;-50
2022/05/03 03:31:09;;;;;;;2.27;2.00;;;9.50;99.90;;;;;;5084246;28;20216;-48
2022/05/03 03:33:55;;;;;;;1.60;1.50;;;9.40;99.90;;;;;;5081649;28;20213;-51
2022/05/03 03:36:42;;;;;;;2.10;1.90;;;9.40;99.90;;;;;;5083023;28;20200;-51
2022/05/03 03:39:30;;;;;;;2.30;2.10;;;9.30;99.90;;;;;;5084770;28;20181;-46
2022/05/03 03:42:15;;;;;;;13.10;5.60;;;9.30;99.90;;;;;;5080741;28;20227;-48
2022/05/03 03:45:01;;;;;;;2.80;1.73;;;9.20;99.90;;;;;;5083916;28;20249;-52
2022/05/03 03:47:47;;;;;;;1.50;1.40;;;9.30;99.90;;;;;;5083412;28;20262;-51
2022/05/03 03:50:33;;;;;;;1.97;1.47;;;9.40;99.90;;;;;;5080510;28;20187;-50
2022/05/03 03:53:17;;;;;;;3.37;2.10;;;9.40;99.90;;;;;;5083839;28;20193;-45
2022/05/03 03:56:02;;;;;;;2.53;1.83;;;9.40;99.90;;;;;;5082631;28;20201;-48
2022/05/03 03:58:47;;;;;;;2.70;1.90;;;9.50;99.90;;;;;;5080857;28;20188;-44
2022/05/03 04:01:32;;;;;;;14.40;6.27;;;9.50;99.90;;;;;;5079980;28;20247;-48
2022/05/03 04:04:18;;;;;;;6.80;2.70;;;9.60;99.90;;;;;;5078373;28;20188;-48
2022/05/03 04:07:03;;;;;;;2.60;2.30;;;9.60;99.90;;;;;;5079792;28;20257;-50
2022/05/03 04:09:48;;;;;;;4.17;2.43;;;9.60;99.90;;;;;;5083345;28;20213;-46
2022/05/03 04:12:34;;;;;;;3.57;2.13;;;9.60;99.90;;;;;;5079859;28;20210;-51
2022/05/03 04:15:18;;;;;;;4.33;2.20;;;9.70;99.90;;;;;;5080668;28;20201;-46
2022/05/03 04:18:06;;;;;;;3.03;2.27;;;9.70;99.90;;;;;;5082876;28;20289;-52
2022/05/03 04:20:51;;;;;;;3.23;2.57;;;9.70;99.90;;;;;;5083216;28;20229;-54
2022/05/03 04:23:37;;;;;;;6.07;2.43;;;9.80;99.90;;;;;;5083854;28;20229;-51
2022/05/03 04:26:22;;;;;;;2.43;2.17;;;9.90;99.90;;;;;;5083385;28;20318;-51
2022/05/03 04:29:06;;;;;;;3.23;2.30;;;9.70;99.90;;;;;;5082598;28;20196;-45
2022/05/03 04:31:50;;;;;;;2.93;2.70;;;9.70;99.90;;;;;;5086071;28;20184;-42
2022/05/03 04:34:34;;;;;;;2.70;2.50;;;9.60;99.90;;;;;;5081767;28;20209;-48
2022/05/03 04:37:18;;;;;;;2.97;2.70;;;9.50;99.90;;;;;;5082959;28;20278;-47
2022/05/03 04:40:03;;;;;;;2.33;2.13;;;9.60;99.90;;;;;;5086099;28;20192;-45
2022/05/03 04:42:48;;;;;;;5.23;2.63;;;9.50;99.90;;;;;;5079335;28;20271;-56
2022/05/03 04:45:32;;;;;;;2.50;2.30;;;9.60;99.90;;;;;;5085405;28;20188;-55
2022/05/03 04:48:16;;;;;;;2.67;2.20;;;9.60;99.90;;;;;;5083407;28;20309;-55
2022/05/03 04:51:01;;;;;;;2.53;2.30;;;9.60;99.90;;;;;;5081036;28;20278;-53
2022/05/03 04:53:46;;;;;;;4.20;2.80;;;9.60;99.90;;;;;;5086923;28;20605;-52
2022/05/03 04:56:30;;;;;;;2.93;2.43;;;9.60;99.90;;;;;;5083625;28;20189;-56
2022/05/03 04:59:14;;;;;;;4.40;2.43;;;9.60;99.90;;;;;;5083686;28;20243;-54
2022/05/03 05:01:59;;;;;;;3.47;2.73;;;9.60;99.90;;;;;;5087073;28;20219;-52
2022/05/03 05:04:43;;;;;;;2.57;1.97;;;9.60;99.90;;;;;;5084486;28;20201;-50
2022/05/03 05:07:28;;;;;;;2.80;2.10;;;9.70;99.90;;;;;;5084848;28;20363;-45
2022/05/03 05:10:26;;;;;;;3.43;2.30;;;9.70;99.90;;;;;;5087747;28;20315;-46
2022/05/03 05:13:10;;;;;;;5.10;2.33;;;9.70;99.90;;;;;;5083866;28;20209;-46
2022/05/03 05:15:55;;;;;;;3.43;2.20;;;9.80;99.90;;;;;;5085499;28;20224;-52
2022/05/03 05:18:40;;;;;;;4.00;2.80;;;9.60;99.90;;;;;;5085119;28;20229;-48
2022/05/03 05:21:25;;;;;;;3.20;2.37;;;9.70;99.90;;;;;;5082405;28;20212;-50
2022/05/03 05:24:11;;;;;;;3.70;2.13;;;9.80;99.90;;;;;;5083325;28;20204;-48
2022/05/03 05:26:56;;;;;;;2.07;1.70;;;9.90;99.90;;;;;;5083429;28;20197;-53
2022/05/03 05:29:40;;;;;;;3.07;2.53;;;10.00;99.90;;;;;;5080628;28;20235;-53
2022/05/03 05:32:25;;;;;;;3.43;2.63;;;10.10;99.90;;;;;;5071899;28;20227;-50
2022/05/03 05:35:10;;;;;;;4.30;2.73;;;10.20;99.90;;;;;;5080137;28;20200;-52
2022/05/03 05:37:54;;;;;;;2.67;2.40;;;10.30;99.90;;;;;;5075812;28;20196;-53
2022/05/03 05:40:39;;;;;;;2.77;2.57;;;10.40;99.90;;;;;;5081109;28;20270;-47
2022/05/03 05:43:23;;;;;;;3.77;2.63;;;10.50;99.90;;;;;;5077784;28;20239;-52
2022/05/03 05:46:08;;;;;;;4.37;2.80;;;10.40;99.90;;;;;;5077169;28;20223;-52
2022/05/03 05:48:53;;;;;;;4.07;2.80;;;10.40;99.90;;;;;;5075144;28;20290;-52
2022/05/03 05:51:37;;;;;;;3.00;2.43;;;10.50;99.90;;;;;;5072110;28;20212;-54
2022/05/03 05:54:21;;;;;;;3.10;2.80;;;10.60;99.90;;;;;;5080856;28;20201;-51
2022/05/03 05:57:06;;;;;;;2.73;2.53;;;10.70;99.90;;;;;;5073101;28;20282;-52
2022/05/03 05:59:50;;;;;;;3.33;2.93;;;10.90;99.90;;;;;;5077949;28;20200;-54
2022/05/03 06:02:35;;;;;;;6.40;4.67;;;11.00;99.90;;;;;;5093233;28;20354;-54
2022/05/03 06:05:19;;;;;;;3.17;2.87;;;11.10;99.90;;;;;;5076281;28;20197;-50
2022/05/03 06:08:04;;;;;;;3.00;2.67;;;11.30;99.90;;;;;;5081706;28;20236;-47
2022/05/03 06:10:49;;;;;;;2.40;2.20;;;11.30;99.90;;;;;;5086258;28;20189;-52
2022/05/03 06:13:34;;;;;;;4.57;3.00;;;11.40;99.90;;;;;;5082502;28;20211;-52
2022/05/03 06:16:19;;;;;;;4.17;2.90;;;11.50;99.90;;;;;;5080893;28;20197;-50
2022/05/03 06:19:03;;;;;;;2.60;2.40;;;11.80;99.90;;;;;;5085149;28;20251;-57
2022/05/03 06:21:48;;;;;;;5.97;2.93;;;11.60;99.90;;;;;;5079253;28;20604;-51
2022/05/03 06:24:33;;;;;;;3.60;2.67;;;11.70;99.90;;;;;;5084826;28;20316;-53
2022/05/03 06:27:17;;;;;;;3.00;2.70;;;11.90;99.90;;;;;;5082310;28;20351;-49
2022/05/03 06:30:06;;;;;;;3.43;2.70;;;12.00;99.90;;;;;;5081449;28;20281;-53
2022/05/03 06:32:50;;;;;;;3.13;2.50;;;12.10;99.90;;;;;;5085046;28;20203;-52
2022/05/03 06:35:35;;;;;;;2.37;2.20;;;12.20;99.90;;;;;;5081831;28;20200;-52
2022/05/03 06:38:19;;;;;;;3.03;2.73;;;12.40;99.90;;;;;;5082190;28;20208;-55
2022/05/03 06:41:03;;;;;;;2.97;2.67;;;12.40;99.90;;;;;;5084729;28;20233;-51
2022/05/03 06:43:47;;;;;;;3.53;2.87;;;12.50;99.90;;;;;;5081184;28;20296;-50
2022/05/03 06:46:31;;;;;;;2.67;2.43;;;12.50;99.90;;;;;;5083030;28;20188;-44
2022/05/03 06:49:16;;;;;;;3.70;2.77;;;12.70;99.90;;;;;;5084551;28;20247;-56
2022/05/03 06:52:00;;;;;;;2.67;2.47;;;12.80;99.90;;;;;;5080664;28;20189;-46
2022/05/03 06:54:45;;;;;;;3.70;2.63;;;12.90;99.90;;;;;;5081650;28;20200;-49
2022/05/03 06:57:29;;;;;;;2.60;2.40;;;13.00;99.90;;;;;;5082506;28;20197;-53
2022/05/03 07:00:14;;;;;;;3.23;2.93;;;12.90;99.90;;;;;;5080909;28;20278;-49
2022/05/03 07:02:59;;;;;;;2.83;2.53;;;13.10;99.90;;;;;;5084722;28;20192;-44
2022/05/03 07:05:44;;;;;;;5.10;2.47;;;13.40;99.90;;;;;;5081956;28;20232;-52
2022/05/03 07:08:28;;;;;;;4.13;2.47;;;13.70;99.90;;;;;;5081915;28;20197;-55
2022/05/03 07:11:12;;;;;;;3.40;2.57;;;14.10;99.90;;;;;;5085161;28;20284;-52
2022/05/03 07:13:57;;;;;;;2.23;2.00;;;14.40;99.90;;;;;;5080907;28;20239;-56
2022/05/03 07:16:42;;;;;;;2.37;2.23;;;14.60;99.90;;;;;;5082333;28;20181;-54
2022/05/03 07:22:47;;;;;;;3.43;3.13;;;15.00;99.90;;;;;;5081952;28;20224;-50
2022/05/03 07:25:32;;;;;;;2.33;2.13;;;15.40;99.90;;;;;;5082687;28;20192;-47
2022/05/03 07:28:17;;;;;;;2.37;2.17;;;15.60;99.90;;;;;;5083425;28;20197;-53
2022/05/03 07:31:01;;;;;;;4.63;3.77;;;15.90;99.90;;;;;;5078752;28;20202;-52
2022/05/03 07:33:48;;;;;;;5.93;3.63;;;16.00;99.90;;;;;;5063726;28;20197;-48
2022/05/03 07:36:32;;;;;;;2.30;2.20;;;16.10;99.90;;;;;;5082721;28;20193;-50
2022/05/03 07:39:16;;;;;;;1.90;1.80;;;16.50;99.90;;;;;;5080788;28;20189;-53
2022/05/03 07:42:00;;;;;;;2.10;1.90;;;16.90;99.90;;;;;;5083919;28;20226;-51
2022/05/03 07:44:45;;;;;;;2.00;1.90;;;16.60;99.90;;;;;;5061941;28;20234;-52
2022/05/03 07:47:29;;;;;;;1.80;1.70;;;16.50;99.90;;;;;;5074477;28;20254;-48
2022/05/03 07:50:13;;;;;;;1.77;1.67;;;16.70;99.90;;;;;;5084249;28;20247;-58
2022/05/03 07:52:58;;;;;;;4.00;1.80;;;16.20;99.90;;;;;;5083420;28;20364;-57
2022/05/03 07:55:47;;;;;;;1.80;1.70;;;16.50;99.90;;;;;;5086859;28;20196;-52
2022/05/03 07:58:31;;;;;;;2.50;2.30;;;16.70;99.90;;;;;;5087671;28;20193;-56
2022/05/03 08:01:16;;;;;;;4.03;3.33;;;17.00;99.90;;;;;;5084774;28;20306;-53
2022/05/03 08:04:00;;;;;;;2.20;2.00;;;17.30;99.90;;;;;;5087428;28;20190;-50
2022/05/03 08:06:44;;;;;;;2.00;1.83;;;17.40;99.90;;;;;;5073474;28;20255;-56
2022/05/03 08:09:29;;;;;;;1.93;1.83;;;17.50;99.90;;;;;;5084591;28;20223;-57
2022/05/03 08:12:13;;;;;;;2.28;1.73;;;18.00;99.90;;;;;;5088497;28;20228;-59
2022/05/03 08:14:57;;;;;;;1.90;1.80;;;18.00;99.90;;;;;;5086189;28;20216;-55
2022/05/03 08:17:42;;;;;;;1.88;1.77;;;18.20;99.90;;;;;;5084783;28;20205;-54
2022/05/03 08:20:26;;;;;;;2.15;1.90;;;19.10;99.90;;;;;;5087911;28;20200;-50
2022/05/03 08:23:10;;;;;;;1.90;1.80;;;19.10;99.90;;;;;;5084111;28;20285;-47
2022/05/03 08:25:54;;;;;;;1.80;1.70;;;18.90;99.90;;;;;;5086006;28;20269;-52
2022/05/03 08:28:39;;;;;;;3.15;1.90;;;18.90;99.90;;;;;;5087139;28;20189;-52
2022/05/03 08:31:23;;;;;;;1.38;1.38;;;19.50;99.90;;;;;;5083628;28;20212;-53
2022/05/03 08:34:08;;;;;;;1.88;1.77;;;19.60;99.90;;;;;;5086926;28;20216;-53
2022/05/03 08:42:59;;;;;;;1.50;1.50;;;19.30;99.70;;;;;;5088687;28;20208;-56
2022/05/03 08:45:48;;;;;;;1.90;1.80;;;19.00;99.10;;;;;;5087031;28;20196;-55
2022/05/03 08:48:37;;;;;;;5.32;2.90;;;19.10;99.30;;;;;;5083418;28;20200;-49
2022/05/03 08:51:23;;;;;;;1.63;1.50;;;19.60;98.90;;;;;;5081407;28;20209;-48
2022/05/03 08:54:09;;;;;;;1.30;1.30;;;19.90;98.40;;;;;;5065806;28;20252;-57
2022/05/03 08:56:54;;;;;;;1.70;1.60;;;20.00;97.60;;;;;;5071369;28;20224;-48
2022/05/03 08:59:38;;;;;;;2.38;1.60;;;19.90;97.50;;;;;;5086996;28;20257;-55
2022/05/03 09:02:23;;;;;;;1.83;1.73;;;19.70;97.80;;;;;;5083917;28;20232;-50
2022/05/03 09:05:08;;;;;;;1.67;1.63;;;20.20;97.40;;;;;;5084072;28;20201;-49
2022/05/03 09:07:59;;;;;;;1.40;1.33;;;20.90;96.00;;;;;;5086127;28;20267;-50
2022/05/03 09:10:45;;;;;;;1.17;1.17;;;21.20;93.70;;;;;;5079772;28;20251;-56
2022/05/03 09:13:32;;;;;;;1.30;1.27;;;22.20;93.70;;;;;;5084598;28;20220;-52
2022/05/03 09:16:18;;;;;;;1.35;1.17;;;22.30;92.40;;;;;;5085981;28;20200;-53
2022/05/03 09:19:02;;;;;;;1.30;1.30;;;21.70;92.50;;;;;;5083436;28;20193;-56
2022/05/03 09:24:52;;;;;;;1.10;1.10;;;21.10;92.70;;;;;;5067744;28;20193;-56
2022/05/03 09:27:36;;;;;;;1.83;1.73;;;21.60;92.20;;;;;;5077009;28;20189;-58
2022/05/03 09:30:20;;;;;;;1.30;1.30;;;22.00;91.40;;;;;;5085599;28;20323;-46
2022/05/03 09:33:05;;;;;;;2.67;2.47;;;21.80;91.50;;;;;;5085303;28;20390;-55
2022/05/03 09:35:50;;;;;;;4.05;3.58;;;22.30;91.70;;;;;;5082875;28;20272;-46
2022/05/03 09:38:45;;;;;;;2.60;2.38;;;23.00;90.50;;;;;;5086117;28;20220;-47
2022/05/03 09:41:30;;;;;;;1.50;1.50;;;24.20;88.10;;;;;;5085122;28;20275;-51
2022/05/03 09:44:14;;;;;;;1.60;1.60;;;24.90;84.70;;;;;;5081962;28;20211;-52
2022/05/03 09:46:58;;;;;;;1.50;1.27;;;25.10;82.60;;;;;;5078587;28;20279;-51
2022/05/03 09:49:43;;;;;;;1.38;1.27;;;25.70;81.10;;;;;;5079374;28;20322;-52
2022/05/03 09:52:36;;;;;;;2.15;1.77;;;25.00;80.90;;;;;;5080768;28;20196;-53
2022/05/03 09:55:36;;;;;;;1.17;1.17;;;26.30;79.10;;;;;;5081696;28;20196;-49
2022/05/03 09:58:20;;;;;;;1.85;1.08;;;24.90;77.90;;;;;;5081774;28;20188;-54
2022/05/03 10:01:05;;;;;;;1.50;1.40;;;25.60;77.60;;;;;;5083854;28;20262;-56
2022/05/03 10:03:51;;;;;;;3.08;2.78;;;26.10;76.00;;;;;;5083006;28;20215;-56
2022/05/03 10:06:36;;;;;;;1.30;1.30;;;27.60;74.70;;;;;;5079819;28;20220;-51
2022/05/03 10:09:20;;;;;;;1.05;1.05;;;28.90;69.30;;;;;;5085501;28;20243;-49
2022/05/03 10:12:08;;;;;;;4.30;2.50;;;28.30;68.80;;;;;;5085831;28;20248;-54
2022/05/03 10:14:53;;;;;;;1.65;1.63;;;28.40;68.50;;;;;;5081437;28;20193;-55
2022/05/03 10:20:50;;;;;;;3.22;3.03;;;26.30;69.70;;;;;;5084806;28;20192;-50
2022/05/03 10:23:35;;;;;;;4.10;3.80;;;26.70;69.50;;;;;;5078246;28;20193;-51
2022/05/03 10:26:19;;;;;;;4.22;3.42;;;28.00;67.70;;;;;;5080939;28;20216;-48
2022/05/03 10:29:10;;;;;;;1.25;1.25;;;27.80;66.50;;;;;;5081893;28;20259;-58
2022/05/03 10:32:04;;;;;;;1.50;1.50;;;27.60;67.00;;;;;;5078572;28;20217;-50
2022/05/03 10:34:52;;;;;;;2.15;1.80;;;27.80;65.10;;;;;;5081114;28;20197;-51
2022/05/03 10:37:37;;;;;;;5.55;4.82;;;27.40;65.80;;;;;;5076888;28;20204;-52
2022/05/03 10:40:30;;;;;;;1.48;1.48;;;27.30;65.00;;;;;;5078011;28;20221;-45
2022/05/03 10:43:26;;;;;;;2.15;2.05;;;26.60;66.30;;;;;;5084913;28;20242;-54
2022/05/03 10:46:12;;;;;;;1.95;1.40;;;25.70;69.40;;;;;;5080373;28;20193;-54
2022/05/03 10:49:15;;;;;;;1.20;1.20;;;24.60;70.70;;;;;;5081850;28;20205;-52
2022/05/03 10:51:59;;;;;;;1.70;1.60;;;24.50;72.00;;;;;;5084768;28;20224;-48
2022/05/03 10:55:13;;;;;;;1.50;1.50;;;25.30;71.00;;;;;;5082453;28;20227;-46
2022/05/03 10:58:19;;;;;;;1.38;1.15;;;24.50;70.40;;;;;;4998840;28;20199;-49
2022/05/03 11:01:19;;;;;;;1.00;1.00;;;26.80;68.90;;;;;;4989737;28;20257;-51
2022/05/03 11:04:04;;;;;;;1.15;1.15;;;28.90;64.80;;;;;;4990295;28;20268;-53
2022/05/03 11:06:51;;;;;;;1.42;1.33;;;31.00;60.20;;;;;;4984977;28;20267;-55
2022/05/03 11:09:36;;;;;;;2.20;1.38;;;29.60;60.60;;;;;;4989016;28;20199;-48
2022/05/03 11:12:49;;;;;;;1.42;1.30;;;31.40;58.00;;;;;;4989268;28;20227;-51
2022/05/03 11:15:34;;;;;;;1.23;1.23;;;30.90;59.90;;;;;;4987669;28;20195;-51
2022/05/03 11:18:19;;;;;;;1.00;1.00;;;31.10;58.70;;;;;;4988982;28;20211;-50
2022/05/03 11:21:14;;;;;;;1.17;1.17;;;31.20;57.30;;;;;;4984110;28;20313;-48
2022/05/03 11:23:58;;;;;;;1.05;1.05;;;31.30;58.20;;;;;;4987040;28;20194;-54
2022/05/03 11:26:43;;;;;;;1.20;1.20;;;30.00;60.10;;;;;;4988235;28;20258;-52
2022/05/03 11:29:32;;;;;;;1.65;1.65;;;27.50;63.50;;;;;;4988038;28;20204;-51
2022/05/03 11:32:30;;;;;;;1.40;1.40;;;25.70;66.60;;;;;;4986866;28;20231;-50
2022/05/03 11:35:22;;;;;;;2.83;2.20;;;25.00;67.30;;;;;;5081106;28;20200;-54
2022/05/03 11:38:11;;;;;;;2.45;1.73;;;24.90;69.30;;;;;;5082031;28;20193;-51
2022/05/03 11:40:55;;;;;;;1.70;1.60;;;24.10;72.00;;;;;;5081210;28;20192;-55
2022/05/03 11:43:40;;;;;;;1.33;1.23;;;23.70;73.70;;;;;;5084861;28;20246;-53
2022/05/03 11:46:24;;;;;;;1.20;1.10;;;23.20;72.90;;;;;;5080733;28;20208;-53
2022/05/03 11:49:11;;;;;;;1.40;1.35;;;23.00;74.00;;;;;;5081831;28;20188;-50
2022/05/03 11:58:19;;;;;;;1.55;1.20;;;22.30;73.40;;;;;;4997636;28;20204;-56
2022/05/03 12:01:12;;;;;;;1.88;1.60;;;21.70;73.90;;;;;;5076537;28;20216;-52
2022/05/03 12:03:58;;;;;;;0.93;0.93;;;21.80;73.00;;;;;;5081796;28;20235;-57
2022/05/03 12:06:45;;;;;;;1.00;1.00;;;21.70;73.70;;;;;;5080176;28;20350;-56
2022/05/03 12:09:37;;;;;;;1.00;1.00;;;21.80;74.60;;;;;;5083697;28;20186;-53
2022/05/03 12:12:44;;;;;;;1.17;1.08;;;21.50;74.60;;;;;;5081808;28;20282;-55
2022/05/03 12:15:30;;;;;;;1.27;1.20;;;21.70;74.90;;;;;;5080600;28;20227;-54
2022/05/03 12:18:33;;;;;;;1.75;1.02;;;21.80;74.90;;;;;;5082938;28;20204;-54
2022/05/03 12:21:28;;;;;;;3.58;1.10;;;21.40;75.20;;;;;;5081541;28;20196;-53
2022/05/03 12:24:12;;;;;;;0.88;0.88;;;21.40;75.50;;;;;;5080724;28;20197;-56
2022/05/03 12:27:10;;;;;;;0.70;0.70;;;21.50;74.80;;;;;;5083440;28;20189;-55
2022/05/03 12:29:54;;;;;;;0.95;0.95;;;22.70;73.70;;;;;;5082007;28;20196;-57
2022/05/03 12:32:39;;;;;;;0.93;0.93;;;23.50;72.70;;;;;;5081222;28;20313;-54
2022/05/03 12:35:34;;;;;;;1.17;1.17;;;23.40;71.60;;;;;;5084236;28;20272;-50
2022/05/03 12:38:21;;;;;;;0.95;0.95;;;23.80;71.30;;;;;;5081378;28;20219;-57
2022/05/03 12:41:05;;;;;;;1.02;1.00;;;26.10;68.50;;;;;;5079940;28;20221;-56
2022/05/03 12:44:06;;;;;;;1.00;1.00;;;27.60;64.10;;;;;;5067865;28;20202;-54
2022/05/03 12:46:51;;;;;;;0.80;0.80;;;28.00;63.90;;;;;;5072637;28;20287;-56
2022/05/03 12:49:37;;;;;;;0.90;0.90;;;29.30;60.30;;;;;;5085619;28;20464;-51
2022/05/03 12:52:21;;;;;;;1.15;0.90;;;29.30;58.50;;;;;;5087652;28;20232;-45
2022/05/03 12:55:06;;;;;;;0.98;0.95;;;28.40;58.30;;;;;;5084050;28;20196;-50
2022/05/03 13:00:57;;;;;;;0.73;0.70;;;30.90;55.90;;;;;;5089383;28;20250;-52
2022/05/03 13:03:42;;;;;;;0.85;0.85;;;33.20;52.60;;;;;;5085713;28;20208;-55
2022/05/03 13:06:26;;;;;;;0.77;0.77;;;33.40;50.40;;;;;;5085643;28;20236;-53
2022/05/03 13:09:11;;;;;;;0.70;0.70;;;32.50;51.80;;;;;;5070163;28;20215;-57
2022/05/03 13:11:55;;;;;;;0.68;0.68;;;32.50;51.40;;;;;;5083507;28;20235;-55
2022/05/03 13:14:40;;;;;;;0.60;0.60;;;31.60;51.70;;;;;;5087172;28;20192;-52
2022/05/03 13:17:24;;;;;;;0.85;0.85;;;34.50;49.60;;;;;;5084989;28;20219;-52
2022/05/03 13:20:09;;;;;;;0.93;0.90;;;36.30;47.80;;;;;;5084674;28;20211;-53
2022/05/03 13:22:54;;;;;;;0.95;0.95;;;37.20;46.30;;;;;;5087734;28;20275;-51
2022/05/03 13:25:39;;;;;;;1.23;0.63;;;35.90;45.40;;;;;;5084298;28;20196;-58
2022/05/03 13:28:23;;;;;;;0.85;0.85;;;37.70;43.90;;;;;;5080330;28;20203;-53
2022/05/03 13:31:08;;;;;;;0.63;0.63;;;37.20;44.20;;;;;;5081554;28;20227;-54
2022/05/03 13:33:52;;;;;;;0.63;0.57;;;36.90;43.90;;;;;;5063638;28;20242;-54
2022/05/03 13:42:43;;;;;;;0.90;0.90;;;37.70;41.80;;;;;;5085375;28;20200;-50
2022/05/03 13:45:29;;;;;;;1.10;1.10;;;34.30;42.70;;;;;;5086011;28;20199;-54
2022/05/03 13:48:36;;;;;;;0.70;0.70;;;33.50;44.90;;;;;;5075476;28;20266;-53
2022/05/03 13:51:21;;;;;;;0.85;0.85;;;35.10;44.40;;;;;;5076330;28;20227;-59
2022/05/03 13:54:06;;;;;;;0.80;0.80;;;35.30;42.90;;;;;;5074291;28;20258;-58
2022/05/03 13:56:50;;;;;;;0.93;0.93;;;34.60;44.50;;;;;;5077440;28;20217;-54
2022/05/03 13:59:35;;;;;;;1.15;0.70;;;32.60;46.00;;;;;;5077762;28;20288;-58
2022/05/03 14:02:19;;;;;;;0.93;0.93;;;32.40;46.90;;;;;;5078932;28;20274;-53
2022/05/03 14:05:05;;;;;;;1.48;0.93;;;32.90;44.40;;;;;;5074904;28;20200;-57
2022/05/03 14:07:51;;;;;;;1.05;0.73;;;29.70;47.80;;;;;;5072599;28;20622;-57
2022/05/03 14:10:35;;;;;;;0.80;0.80;;;29.30;49.20;;;;;;5076622;28;20212;-57
2022/05/03 14:13:19;;;;;;;1.65;0.80;;;28.20;49.80;;;;;;5074937;28;20212;-59
2022/05/03 14:16:05;;;;;;;0.77;0.77;;;27.40;50.90;;;;;;5076991;28;20260;-51
2022/05/03 14:18:50;;;;;;;0.82;0.82;;;27.20;51.10;;;;;;5070710;28;20192;-49
2022/05/03 14:21:34;;;;;;;0.70;0.70;;;29.20;50.00;;;;;;5066329;28;20225;-52
2022/05/03 14:24:18;;;;;;;0.60;0.60;;;28.80;49.20;;;;;;5076692;28;20257;-52
2022/05/03 14:27:03;;;;;;;0.63;0.63;;;31.70;48.90;;;;;;5072336;28;20239;-56
2022/05/03 14:29:48;;;;;;;1.55;1.00;;;32.00;47.50;;;;;;5069012;28;20278;-56
2022/05/03 14:32:33;;;;;;;0.80;0.80;;;31.00;47.30;;;;;;5071580;28;20283;-53
2022/05/03 14:35:18;;;;;;;1.00;0.82;;;29.90;48.90;;;;;;5076876;28;20277;-58
2022/05/03 14:38:02;;;;;;;1.30;0.80;;;30.80;48.60;;;;;;5087097;28;20255;-52
2022/05/03 14:40:47;;;;;;;1.20;0.80;;;31.70;48.30;;;;;;5074063;28;20209;-53
2022/05/03 14:43:31;;;;;;;0.85;0.85;;;32.90;47.10;;;;;;5077144;28;20227;-56
2022/05/03 14:46:16;;;;;;;0.68;0.60;;;32.60;46.40;;;;;;5081419;28;20270;-52
2022/05/03 14:49:00;;;;;;;0.70;0.70;;;31.50;49.00;;;;;;5084822;28;20239;-54
2022/05/03 14:51:44;;;;;;;0.70;0.70;;;30.20;51.30;;;;;;5081877;28;20224;-55
2022/05/03 14:54:28;;;;;;;0.75;0.60;;;29.70;52.50;;;;;;5083849;28;20189;-46
2022/05/03 15:03:21;;;;;;;0.70;0.70;;;27.00;57.20;;;;;;5084461;28;20216;-46
2022/05/03 15:06:06;;;;;;;0.80;0.80;;;27.40;55.20;;;;;;5084581;28;20237;-45
2022/05/03 15:08:52;;;;;;;0.77;0.77;;;26.90;56.40;;;;;;5081267;28;20251;-52
2022/05/03 15:11:36;;;;;;;1.08;1.08;;;26.40;57.50;;;;;;5084099;28;20224;-45
2022/05/03 15:14:21;;;;;;;0.77;0.77;;;26.20;58.50;;;;;;5084029;28;20254;-51
2022/05/03 15:17:05;;;;;;;0.88;0.88;;;25.70;58.00;;;;;;5081263;28;21074;-50